This is the latest recevied weather packets stored in our database for station/object Aulendorf. If no packets are shown the sender has not sent any weather packets the latest 10 day(s).
| Time | Temp. | Humidity | Pressure | Rain* | Wind** | Luminosity | Snow |
|---|---|---|---|---|---|---|---|
| 1777694533 | 4.44° C | 81% | 1021.7 hPa | 0 mm | - | - | - |
| 1777692731 | 4.44° C | 79% | 1021.7 hPa | 0 mm | - | - | - |
| 1777690931 | 5.56° C | 77% | 1021.7 hPa | 0 mm | - | - | - |
| 1777689134 | 5.56° C | 75% | 1021.8 hPa | 0 mm | - | - | - |
| 1777687332 | 6.67° C | 72% | 1021.8 hPa | 0 mm | - | - | - |
| 1777685531 | 7.22° C | 69% | 1021.8 hPa | 0 mm | - | - | - |
| 1777683731 | 8.33° C | 66% | 1021.9 hPa | 0 mm | - | - | - |
| 1777681929 | 9.44° C | 62% | 1022.1 hPa | 0 mm | - | - | - |
| 1777680129 | 10.56° C | 57% | 1022.2 hPa | 0 mm | - | - | - |
| 1777678330 | 11.67° C | 54% | 1022.3 hPa | 0 mm | - | - | - |
| 1777676530 | 11.67° C | 54% | 1022.4 hPa | 0 mm | - | - | - |
| 1777674730 | 11.67° C | 53% | 1022.6 hPa | 0 mm | - | - | - |
| 1777672931 | 12.78° C | 50% | 1022.5 hPa | 0 mm | - | - | - |
| 1777671130 | 13.33° C | 49% | 1022.6 hPa | 0 mm | - | - | - |
| 1777669330 | 13.33° C | 48% | 1022.7 hPa | 0 mm | - | - | - |
| 1777667529 | 13.89° C | 46% | 1022.8 hPa | 0 mm | - | - | - |
| 1777665731 | 15° C | 44% | 1022.9 hPa | 0 mm | - | - | - |
| 1777663929 | 15.56° C | 42% | 1022.6 hPa | 0 mm | - | - | - |
| 1777662130 | 16.67° C | 40% | 1022.3 hPa | 0 mm | - | - | - |
| 1777660330 | 17.78° C | 37% | 1022.1 hPa | 0 mm | - | - | - |
| 1777658531 | 18.89° C | 35% | 1022 hPa | 0 mm | - | - | - |
| 1777656731 | 20° C | 32% | 1021.9 hPa | 0 mm | - | - | - |
| 1777654930 | 20.56° C | 29% | 1022 hPa | 0 mm | - | - | - |
| 1777653129 | 21.11° C | 28% | 1022 hPa | 0 mm | - | - | - |
| 1777651330 | 21.67° C | 26% | 1022.4 hPa | 0 mm | - | - | - |
* Rain since midnight (hover to see other rain measurements)
** Current wind speed in m/s (hover to see current wind gust speed)